sensor_id;sensor_type;location;lat;lon;timestamp;P1;durP1;ratioP1;P2;durP2;ratioP2
14209;SDS011;7188;56.070;12.698;2022-11-13T00:00:31;34.53;;;16.10;;
14209;SDS011;7188;56.070;12.698;2022-11-13T00:02:57;27.27;;;14.30;;
14209;SDS011;7188;56.070;12.698;2022-11-13T00:05:23;27.23;;;13.00;;
14209;SDS011;7188;56.070;12.698;2022-11-13T00:07:49;33.20;;;15.90;;
14209;SDS011;7188;56.070;12.698;2022-11-13T00:10:15;32.83;;;15.00;;
14209;SDS011;7188;56.070;12.698;2022-11-13T00:12:40;31.07;;;15.33;;
14209;SDS011;7188;56.070;12.698;2022-11-13T00:15:06;27.10;;;14.37;;
14209;SDS011;7188;56.070;12.698;2022-11-13T00:17:32;28.60;;;15.53;;
14209;SDS011;7188;56.070;12.698;2022-11-13T00:19:58;33.97;;;16.33;;
14209;SDS011;7188;56.070;12.698;2022-11-13T00:22:23;36.70;;;16.80;;
14209;SDS011;7188;56.070;12.698;2022-11-13T00:24:49;29.57;;;13.97;;
14209;SDS011;7188;56.070;12.698;2022-11-13T00:27:14;31.57;;;15.90;;
14209;SDS011;7188;56.070;12.698;2022-11-13T00:29:40;34.23;;;17.40;;
14209;SDS011;7188;56.070;12.698;2022-11-13T00:32:05;40.60;;;16.67;;
14209;SDS011;7188;56.070;12.698;2022-11-13T00:34:31;41.97;;;18.57;;
14209;SDS011;7188;56.070;12.698;2022-11-13T00:36:57;36.27;;;18.63;;
14209;SDS011;7188;56.070;12.698;2022-11-13T00:39:22;33.00;;;16.27;;
14209;SDS011;7188;56.070;12.698;2022-11-13T00:41:48;39.00;;;17.93;;
14209;SDS011;7188;56.070;12.698;2022-11-13T00:44:13;37.10;;;18.90;;
14209;SDS011;7188;56.070;12.698;2022-11-13T00:46:39;38.27;;;17.33;;
14209;SDS011;7188;56.070;12.698;2022-11-13T00:49:05;40.73;;;17.77;;
14209;SDS011;7188;56.070;12.698;2022-11-13T00:51:30;35.27;;;17.37;;
14209;SDS011;7188;56.070;12.698;2022-11-13T00:53:57;36.33;;;17.57;;
14209;SDS011;7188;56.070;12.698;2022-11-13T00:56:22;37.67;;;17.73;;
14209;SDS011;7188;56.070;12.698;2022-11-13T00:58:48;52.43;;;22.33;;
14209;SDS011;7188;56.070;12.698;2022-11-13T01:01:15;40.30;;;19.73;;
14209;SDS011;7188;56.070;12.698;2022-11-13T01:03:42;35.93;;;19.20;;
14209;SDS011;7188;56.070;12.698;2022-11-13T01:06:09;36.33;;;17.53;;
14209;SDS011;7188;56.070;12.698;2022-11-13T01:08:40;30.63;;;17.13;;
14209;SDS011;7188;56.070;12.698;2022-11-13T01:11:17;34.87;;;17.03;;
14209;SDS011;7188;56.070;12.698;2022-11-13T01:13:46;34.63;;;18.30;;
14209;SDS011;7188;56.070;12.698;2022-11-13T01:16:14;34.87;;;18.90;;
14209;SDS011;7188;56.070;12.698;2022-11-13T01:18:40;31.53;;;17.77;;
14209;SDS011;7188;56.070;12.698;2022-11-13T01:21:11;39.87;;;19.07;;
14209;SDS011;7188;56.070;12.698;2022-11-13T01:23:37;34.80;;;19.00;;
14209;SDS011;7188;56.070;12.698;2022-11-13T01:26:03;33.87;;;16.13;;
14209;SDS011;7188;56.070;12.698;2022-11-13T01:28:34;35.37;;;19.27;;
14209;SDS011;7188;56.070;12.698;2022-11-13T01:30:59;30.97;;;17.80;;
14209;SDS011;7188;56.070;12.698;2022-11-13T01:33:28;31.93;;;17.80;;
14209;SDS011;7188;56.070;12.698;2022-11-13T01:35:58;28.47;;;18.30;;
14209;SDS011;7188;56.070;12.698;2022-11-13T01:38:35;31.53;;;17.13;;
14209;SDS011;7188;56.070;12.698;2022-11-13T01:41:01;28.93;;;17.10;;
14209;SDS011;7188;56.070;12.698;2022-11-13T01:43:28;31.33;;;18.00;;
14209;SDS011;7188;56.070;12.698;2022-11-13T01:48:22;28.13;;;16.20;;
14209;SDS011;7188;56.070;12.698;2022-11-13T01:50:56;32.17;;;17.43;;
14209;SDS011;7188;56.070;12.698;2022-11-13T01:53:22;29.23;;;16.93;;
14209;SDS011;7188;56.070;12.698;2022-11-13T01:55:48;30.77;;;17.20;;
14209;SDS011;7188;56.070;12.698;2022-11-13T01:58:14;36.67;;;18.17;;
14209;SDS011;7188;56.070;12.698;2022-11-13T02:00:40;32.27;;;19.63;;
14209;SDS011;7188;56.070;12.698;2022-11-13T02:03:06;34.50;;;20.60;;
14209;SDS011;7188;56.070;12.698;2022-11-13T02:05:32;29.27;;;17.77;;
14209;SDS011;7188;56.070;12.698;2022-11-13T02:07:57;26.97;;;17.63;;
14209;SDS011;7188;56.070;12.698;2022-11-13T02:10:23;26.43;;;17.43;;
14209;SDS011;7188;56.070;12.698;2022-11-13T02:12:50;27.77;;;16.83;;
14209;SDS011;7188;56.070;12.698;2022-11-13T02:15:17;29.33;;;15.97;;
14209;SDS011;7188;56.070;12.698;2022-11-13T02:17:49;28.43;;;16.93;;
14209;SDS011;7188;56.070;12.698;2022-11-13T02:20:20;37.17;;;18.37;;
14209;SDS011;7188;56.070;12.698;2022-11-13T02:25:23;24.87;;;15.93;;
14209;SDS011;7188;56.070;12.698;2022-11-13T02:27:51;27.60;;;16.33;;
14209;SDS011;7188;56.070;12.698;2022-11-13T02:32:46;20.80;;;13.80;;
14209;SDS011;7188;56.070;12.698;2022-11-13T02:35:14;24.57;;;15.90;;
14209;SDS011;7188;56.070;12.698;2022-11-13T02:37:54;20.43;;;13.90;;
14209;SDS011;7188;56.070;12.698;2022-11-13T02:40:22;26.77;;;16.90;;
14209;SDS011;7188;56.070;12.698;2022-11-13T02:42:48;26.00;;;16.07;;
14209;SDS011;7188;56.070;12.698;2022-11-13T02:45:14;20.67;;;14.77;;
14209;SDS011;7188;56.070;12.698;2022-11-13T02:47:40;24.63;;;16.17;;
14209;SDS011;7188;56.070;12.698;2022-11-13T02:50:06;27.27;;;16.30;;
14209;SDS011;7188;56.070;12.698;2022-11-13T02:52:32;23.23;;;14.77;;
14209;SDS011;7188;56.070;12.698;2022-11-13T02:55:07;25.27;;;16.73;;
14209;SDS011;7188;56.070;12.698;2022-11-13T02:57:33;24.00;;;15.17;;
14209;SDS011;7188;56.070;12.698;2022-11-13T02:59:58;21.67;;;15.20;;
14209;SDS011;7188;56.070;12.698;2022-11-13T03:02:24;21.83;;;14.73;;
14209;SDS011;7188;56.070;12.698;2022-11-13T03:04:50;16.37;;;11.40;;
14209;SDS011;7188;56.070;12.698;2022-11-13T03:07:15;14.50;;;10.27;;
14209;SDS011;7188;56.070;12.698;2022-11-13T03:09:41;14.17;;;9.93;;
14209;SDS011;7188;56.070;12.698;2022-11-13T03:12:07;16.07;;;10.93;;
14209;SDS011;7188;56.070;12.698;2022-11-13T03:14:33;16.40;;;11.47;;
14209;SDS011;7188;56.070;12.698;2022-11-13T03:16:59;16.07;;;10.77;;
14209;SDS011;7188;56.070;12.698;2022-11-13T03:19:25;15.93;;;10.20;;
14209;SDS011;7188;56.070;12.698;2022-11-13T03:21:52;10.83;;;7.87;;
14209;SDS011;7188;56.070;12.698;2022-11-13T03:24:17;10.17;;;8.03;;
14209;SDS011;7188;56.070;12.698;2022-11-13T03:26:43;10.20;;;8.33;;
14209;SDS011;7188;56.070;12.698;2022-11-13T03:29:09;11.70;;;7.60;;
14209;SDS011;7188;56.070;12.698;2022-11-13T03:31:34;11.37;;;7.43;;
14209;SDS011;7188;56.070;12.698;2022-11-13T03:34:00;9.83;;;6.73;;
14209;SDS011;7188;56.070;12.698;2022-11-13T03:36:25;7.47;;;6.40;;
14209;SDS011;7188;56.070;12.698;2022-11-13T03:38:51;8.57;;;6.47;;
14209;SDS011;7188;56.070;12.698;2022-11-13T03:41:17;11.83;;;7.80;;
14209;SDS011;7188;56.070;12.698;2022-11-13T03:43:42;8.93;;;5.90;;
14209;SDS011;7188;56.070;12.698;2022-11-13T03:46:08;6.67;;;5.13;;
14209;SDS011;7188;56.070;12.698;2022-11-13T03:48:34;6.60;;;5.00;;
14209;SDS011;7188;56.070;12.698;2022-11-13T03:50:59;6.93;;;5.47;;
14209;SDS011;7188;56.070;12.698;2022-11-13T03:53:25;5.83;;;4.73;;
14209;SDS011;7188;56.070;12.698;2022-11-13T03:55:51;4.80;;;4.40;;
14209;SDS011;7188;56.070;12.698;2022-11-13T03:58:17;5.83;;;4.57;;
14209;SDS011;7188;56.070;12.698;2022-11-13T04:00:44;7.37;;;4.50;;
14209;SDS011;7188;56.070;12.698;2022-11-13T04:03:10;4.77;;;4.00;;
14209;SDS011;7188;56.070;12.698;2022-11-13T04:05:36;5.00;;;4.33;;
14209;SDS011;7188;56.070;12.698;2022-11-13T04:08:02;4.80;;;4.40;;
14209;SDS011;7188;56.070;12.698;2022-11-13T04:10:28;7.63;;;4.27;;
14209;SDS011;7188;56.070;12.698;2022-11-13T04:12:54;2.97;;;2.77;;
14209;SDS011;7188;56.070;12.698;2022-11-13T04:15:19;3.83;;;3.27;;
14209;SDS011;7188;56.070;12.698;2022-11-13T04:17:45;3.70;;;3.37;;
14209;SDS011;7188;56.070;12.698;2022-11-13T04:20:12;3.57;;;3.37;;
14209;SDS011;7188;56.070;12.698;2022-11-13T04:22:38;5.23;;;4.57;;
14209;SDS011;7188;56.070;12.698;2022-11-13T04:25:04;3.47;;;3.17;;
14209;SDS011;7188;56.070;12.698;2022-11-13T04:27:30;5.87;;;4.60;;
14209;SDS011;7188;56.070;12.698;2022-11-13T04:29:55;4.43;;;3.67;;
14209;SDS011;7188;56.070;12.698;2022-11-13T04:32:33;5.03;;;4.60;;
14209;SDS011;7188;56.070;12.698;2022-11-13T04:34:59;5.13;;;4.63;;
14209;SDS011;7188;56.070;12.698;2022-11-13T04:37:24;6.77;;;5.90;;
14209;SDS011;7188;56.070;12.698;2022-11-13T04:39:50;6.60;;;5.83;;
14209;SDS011;7188;56.070;12.698;2022-11-13T04:42:16;5.37;;;4.93;;
14209;SDS011;7188;56.070;12.698;2022-11-13T04:45:00;5.57;;;4.90;;
14209;SDS011;7188;56.070;12.698;2022-11-13T04:47:25;6.83;;;5.17;;
14209;SDS011;7188;56.070;12.698;2022-11-13T04:49:51;5.93;;;5.43;;
14209;SDS011;7188;56.070;12.698;2022-11-13T04:52:16;6.10;;;4.93;;
14209;SDS011;7188;56.070;12.698;2022-11-13T04:54:42;5.90;;;4.70;;
14209;SDS011;7188;56.070;12.698;2022-11-13T04:57:17;5.07;;;4.47;;
14209;SDS011;7188;56.070;12.698;2022-11-13T04:59:42;7.23;;;5.03;;
14209;SDS011;7188;56.070;12.698;2022-11-13T05:02:08;5.17;;;4.67;;
14209;SDS011;7188;56.070;12.698;2022-11-13T05:04:34;4.93;;;4.27;;
14209;SDS011;7188;56.070;12.698;2022-11-13T05:06:59;5.17;;;4.70;;
14209;SDS011;7188;56.070;12.698;2022-11-13T05:09:25;6.33;;;4.67;;
14209;SDS011;7188;56.070;12.698;2022-11-13T05:11:50;4.87;;;4.40;;
14209;SDS011;7188;56.070;12.698;2022-11-13T05:14:16;5.13;;;3.97;;
14209;SDS011;7188;56.070;12.698;2022-11-13T05:16:41;4.43;;;4.03;;
14209;SDS011;7188;56.070;12.698;2022-11-13T05:19:07;4.87;;;3.97;;
14209;SDS011;7188;56.070;12.698;2022-11-13T05:21:33;4.00;;;3.70;;
14209;SDS011;7188;56.070;12.698;2022-11-13T05:24:02;3.87;;;3.47;;
14209;SDS011;7188;56.070;12.698;2022-11-13T05:26:28;4.90;;;4.03;;
14209;SDS011;7188;56.070;12.698;2022-11-13T05:28:58;4.23;;;3.83;;
14209;SDS011;7188;56.070;12.698;2022-11-13T05:31:24;3.47;;;3.17;;
14209;SDS011;7188;56.070;12.698;2022-11-13T05:33:51;3.93;;;3.53;;
14209;SDS011;7188;56.070;12.698;2022-11-13T05:36:17;3.53;;;3.23;;
14209;SDS011;7188;56.070;12.698;2022-11-13T05:38:44;2.50;;;2.30;;
14209;SDS011;7188;56.070;12.698;2022-11-13T05:43:36;2.50;;;2.30;;
14209;SDS011;7188;56.070;12.698;2022-11-13T05:48:33;1.73;;;1.63;;
14209;SDS011;7188;56.070;12.698;2022-11-13T05:51:03;2.67;;;1.67;;
14209;SDS011;7188;56.070;12.698;2022-11-13T05:53:34;1.73;;;1.63;;
14209;SDS011;7188;56.070;12.698;2022-11-13T05:56:04;2.00;;;1.70;;
14209;SDS011;7188;56.070;12.698;2022-11-13T05:58:37;2.33;;;1.77;;
14209;SDS011;7188;56.070;12.698;2022-11-13T06:01:38;1.73;;;1.63;;
14209;SDS011;7188;56.070;12.698;2022-11-13T06:03:58;1.73;;;1.63;;
14209;SDS011;7188;56.070;12.698;2022-11-13T06:06:25;3.77;;;2.57;;
14209;SDS011;7188;56.070;12.698;2022-11-13T06:08:52;3.27;;;2.97;;
14209;SDS011;7188;56.070;12.698;2022-11-13T06:11:20;3.70;;;3.10;;
14209;SDS011;7188;56.070;12.698;2022-11-13T06:13:46;2.87;;;2.47;;
14209;SDS011;7188;56.070;12.698;2022-11-13T06:16:14;3.10;;;2.83;;
14209;SDS011;7188;56.070;12.698;2022-11-13T06:18:43;3.40;;;3.10;;
14209;SDS011;7188;56.070;12.698;2022-11-13T06:21:11;2.77;;;2.40;;
14209;SDS011;7188;56.070;12.698;2022-11-13T06:23:39;4.10;;;2.83;;
14209;SDS011;7188;56.070;12.698;2022-11-13T06:28:36;3.27;;;2.90;;
14209;SDS011;7188;56.070;12.698;2022-11-13T06:31:03;4.30;;;3.63;;
14209;SDS011;7188;56.070;12.698;2022-11-13T06:33:30;3.53;;;3.23;;
14209;SDS011;7188;56.070;12.698;2022-11-13T06:35:56;2.97;;;2.77;;
14209;SDS011;7188;56.070;12.698;2022-11-13T06:38:21;4.53;;;3.43;;
14209;SDS011;7188;56.070;12.698;2022-11-13T06:40:47;2.47;;;2.27;;
14209;SDS011;7188;56.070;12.698;2022-11-13T06:43:13;3.07;;;2.40;;
14209;SDS011;7188;56.070;12.698;2022-11-13T06:45:38;2.50;;;2.30;;
14209;SDS011;7188;56.070;12.698;2022-11-13T06:48:04;2.10;;;2.00;;
14209;SDS011;7188;56.070;12.698;2022-11-13T06:50:30;1.80;;;1.70;;
14209;SDS011;7188;56.070;12.698;2022-11-13T06:52:55;2.27;;;2.10;;
14209;SDS011;7188;56.070;12.698;2022-11-13T06:55:21;2.10;;;1.70;;
14209;SDS011;7188;56.070;12.698;2022-11-13T06:57:46;2.00;;;1.90;;
14209;SDS011;7188;56.070;12.698;2022-11-13T07:00:12;1.60;;;1.50;;
14209;SDS011;7188;56.070;12.698;2022-11-13T07:02:38;1.77;;;1.67;;
14209;SDS011;7188;56.070;12.698;2022-11-13T07:05:04;1.93;;;1.83;;
14209;SDS011;7188;56.070;12.698;2022-11-13T07:07:29;1.60;;;1.50;;
14209;SDS011;7188;56.070;12.698;2022-11-13T07:09:55;1.67;;;1.37;;
14209;SDS011;7188;56.070;12.698;2022-11-13T07:12:21;1.50;;;1.40;;
14209;SDS011;7188;56.070;12.698;2022-11-13T07:14:46;1.70;;;0.90;;
14209;SDS011;7188;56.070;12.698;2022-11-13T07:17:12;1.10;;;1.07;;
14209;SDS011;7188;56.070;12.698;2022-11-13T07:19:37;1.47;;;0.90;;
14209;SDS011;7188;56.070;12.698;2022-11-13T07:22:03;1.17;;;1.13;;
14209;SDS011;7188;56.070;12.698;2022-11-13T07:24:28;1.40;;;1.20;;
14209;SDS011;7188;56.070;12.698;2022-11-13T07:26:54;1.43;;;1.40;;
14209;SDS011;7188;56.070;12.698;2022-11-13T07:29:19;1.60;;;1.50;;
14209;SDS011;7188;56.070;12.698;2022-11-13T07:31:45;1.90;;;1.80;;
14209;SDS011;7188;56.070;12.698;2022-11-13T07:34:10;6.87;;;3.57;;
14209;SDS011;7188;56.070;12.698;2022-11-13T07:36:36;2.27;;;2.17;;
14209;SDS011;7188;56.070;12.698;2022-11-13T07:39:02;2.20;;;1.63;;
14209;SDS011;7188;56.070;12.698;2022-11-13T07:41:27;1.90;;;1.80;;
14209;SDS011;7188;56.070;12.698;2022-11-13T07:43:53;1.90;;;1.40;;
14209;SDS011;7188;56.070;12.698;2022-11-13T07:46:18;1.63;;;1.53;;
14209;SDS011;7188;56.070;12.698;2022-11-13T07:48:44;1.30;;;1.20;;
14209;SDS011;7188;56.070;12.698;2022-11-13T07:51:09;1.17;;;1.10;;
14209;SDS011;7188;56.070;12.698;2022-11-13T07:53:35;1.53;;;1.43;;
14209;SDS011;7188;56.070;12.698;2022-11-13T07:56:03;2.27;;;1.23;;
14209;SDS011;7188;56.070;12.698;2022-11-13T07:58:29;1.30;;;1.20;;
14209;SDS011;7188;56.070;12.698;2022-11-13T08:00:59;1.30;;;1.17;;
14209;SDS011;7188;56.070;12.698;2022-11-13T08:03:26;1.93;;;1.80;;
14209;SDS011;7188;56.070;12.698;2022-11-13T08:05:51;1.57;;;1.53;;
14209;SDS011;7188;56.070;12.698;2022-11-13T08:08:23;2.23;;;1.70;;
14209;SDS011;7188;56.070;12.698;2022-11-13T08:10:48;2.27;;;2.17;;
14209;SDS011;7188;56.070;12.698;2022-11-13T08:13:14;1.83;;;1.73;;
14209;SDS011;7188;56.070;12.698;2022-11-13T08:15:39;2.27;;;2.17;;
14209;SDS011;7188;56.070;12.698;2022-11-13T08:18:05;2.83;;;2.53;;
14209;SDS011;7188;56.070;12.698;2022-11-13T08:20:31;2.60;;;2.43;;
14209;SDS011;7188;56.070;12.698;2022-11-13T08:23:00;3.93;;;3.00;;
14209;SDS011;7188;56.070;12.698;2022-11-13T08:25:28;2.97;;;2.77;;
14209;SDS011;7188;56.070;12.698;2022-11-13T08:27:56;3.03;;;2.83;;
14209;SDS011;7188;56.070;12.698;2022-11-13T08:30:22;2.40;;;2.20;;
14209;SDS011;7188;56.070;12.698;2022-11-13T08:32:49;3.47;;;2.97;;
14209;SDS011;7188;56.070;12.698;2022-11-13T08:35:15;3.20;;;2.73;;
14209;SDS011;7188;56.070;12.698;2022-11-13T08:37:41;3.77;;;2.70;;
14209;SDS011;7188;56.070;12.698;2022-11-13T08:40:07;2.80;;;2.60;;
14209;SDS011;7188;56.070;12.698;2022-11-13T08:42:33;3.13;;;2.93;;
14209;SDS011;7188;56.070;12.698;2022-11-13T08:44:59;3.70;;;3.40;;
14209;SDS011;7188;56.070;12.698;2022-11-13T08:47:24;6.20;;;4.83;;
14209;SDS011;7188;56.070;12.698;2022-11-13T08:49:52;6.93;;;5.00;;
14209;SDS011;7188;56.070;12.698;2022-11-13T08:52:18;8.37;;;5.60;;
14209;SDS011;7188;56.070;12.698;2022-11-13T08:54:44;7.23;;;5.83;;
14209;SDS011;7188;56.070;12.698;2022-11-13T08:57:10;5.87;;;5.27;;
14209;SDS011;7188;56.070;12.698;2022-11-13T08:59:36;8.70;;;5.83;;
14209;SDS011;7188;56.070;12.698;2022-11-13T09:02:01;5.03;;;4.60;;
14209;SDS011;7188;56.070;12.698;2022-11-13T09:04:27;5.50;;;4.73;;
14209;SDS011;7188;56.070;12.698;2022-11-13T09:06:53;5.70;;;4.60;;
14209;SDS011;7188;56.070;12.698;2022-11-13T09:09:18;8.87;;;5.50;;
14209;SDS011;7188;56.070;12.698;2022-11-13T09:11:47;5.77;;;5.23;;
14209;SDS011;7188;56.070;12.698;2022-11-13T09:14:13;6.20;;;4.77;;
14209;SDS011;7188;56.070;12.698;2022-11-13T09:16:38;7.17;;;5.10;;
14209;SDS011;7188;56.070;12.698;2022-11-13T09:19:04;6.97;;;4.23;;
14209;SDS011;7188;56.070;12.698;2022-11-13T09:21:30;6.57;;;4.43;;
14209;SDS011;7188;56.070;12.698;2022-11-13T09:23:56;7.93;;;5.73;;
14209;SDS011;7188;56.070;12.698;2022-11-13T09:26:21;6.37;;;4.77;;
14209;SDS011;7188;56.070;12.698;2022-11-13T09:28:47;8.10;;;5.43;;
14209;SDS011;7188;56.070;12.698;2022-11-13T09:31:13;6.63;;;4.93;;
14209;SDS011;7188;56.070;12.698;2022-11-13T09:33:39;8.07;;;5.70;;
14209;SDS011;7188;56.070;12.698;2022-11-13T09:36:11;8.10;;;5.20;;
14209;SDS011;7188;56.070;12.698;2022-11-13T09:38:38;5.47;;;4.13;;
14209;SDS011;7188;56.070;12.698;2022-11-13T09:43:43;4.20;;;3.40;;
14209;SDS011;7188;56.070;12.698;2022-11-13T09:46:58;7.07;;;4.20;;
14209;SDS011;7188;56.070;12.698;2022-11-13T09:49:14;4.87;;;4.00;;
14209;SDS011;7188;56.070;12.698;2022-11-13T09:51:49;4.20;;;3.23;;
14209;SDS011;7188;56.070;12.698;2022-11-13T09:54:17;5.23;;;4.33;;
14209;SDS011;7188;56.070;12.698;2022-11-13T09:56:51;6.57;;;3.60;;
14209;SDS011;7188;56.070;12.698;2022-11-13T10:02:21;3.90;;;3.60;;
14209;SDS011;7188;56.070;12.698;2022-11-13T10:10:51;3.77;;;3.40;;
14209;SDS011;7188;56.070;12.698;2022-11-13T10:13:20;5.00;;;4.23;;
14209;SDS011;7188;56.070;12.698;2022-11-13T10:15:51;4.63;;;4.23;;
14209;SDS011;7188;56.070;12.698;2022-11-13T10:18:28;5.07;;;4.20;;
14209;SDS011;7188;56.070;12.698;2022-11-13T10:21:23;5.67;;;3.53;;
14209;SDS011;7188;56.070;12.698;2022-11-13T10:24:00;6.87;;;4.70;;
14209;SDS011;7188;56.070;12.698;2022-11-13T10:26:28;4.53;;;3.80;;
14209;SDS011;7188;56.070;12.698;2022-11-13T10:29:01;3.83;;;3.33;;
14209;SDS011;7188;56.070;12.698;2022-11-13T10:31:41;3.03;;;2.70;;
14209;SDS011;7188;56.070;12.698;2022-11-13T10:34:14;4.00;;;3.40;;
14209;SDS011;7188;56.070;12.698;2022-11-13T10:36:48;3.53;;;3.20;;
14209;SDS011;7188;56.070;12.698;2022-11-13T10:39:16;5.50;;;3.63;;
14209;SDS011;7188;56.070;12.698;2022-11-13T10:41:46;5.30;;;4.10;;
14209;SDS011;7188;56.070;12.698;2022-11-13T10:44:29;4.33;;;3.73;;
14209;SDS011;7188;56.070;12.698;2022-11-13T10:47:18;4.20;;;3.83;;
14209;SDS011;7188;56.070;12.698;2022-11-13T10:49:45;3.77;;;3.23;;
14209;SDS011;7188;56.070;12.698;2022-11-13T10:54:47;4.80;;;4.03;;
14209;SDS011;7188;56.070;12.698;2022-11-13T10:57:34;5.87;;;4.27;;
14209;SDS011;7188;56.070;12.698;2022-11-13T10:59:59;4.43;;;4.00;;
14209;SDS011;7188;56.070;12.698;2022-11-13T11:02:26;5.30;;;3.50;;
14209;SDS011;7188;56.070;12.698;2022-11-13T11:05:03;6.33;;;3.30;;
14209;SDS011;7188;56.070;12.698;2022-11-13T11:07:33;4.43;;;3.63;;
14209;SDS011;7188;56.070;12.698;2022-11-13T11:13:05;5.20;;;3.87;;
14209;SDS011;7188;56.070;12.698;2022-11-13T11:15:37;3.80;;;3.33;;
14209;SDS011;7188;56.070;12.698;2022-11-13T11:18:19;4.40;;;4.00;;
14209;SDS011;7188;56.070;12.698;2022-11-13T11:21:05;5.07;;;3.90;;
14209;SDS011;7188;56.070;12.698;2022-11-13T11:23:43;8.67;;;4.47;;
14209;SDS011;7188;56.070;12.698;2022-11-13T11:28:46;6.00;;;2.97;;
14209;SDS011;7188;56.070;12.698;2022-11-13T11:31:27;1.73;;;1.60;;
14209;SDS011;7188;56.070;12.698;2022-11-13T11:33:59;3.50;;;1.97;;
14209;SDS011;7188;56.070;12.698;2022-11-13T11:36:37;3.20;;;1.70;;
14209;SDS011;7188;56.070;12.698;2022-11-13T11:41:49;1.60;;;0.70;;
14209;SDS011;7188;56.070;12.698;2022-11-13T11:44:24;2.30;;;0.87;;
14209;SDS011;7188;56.070;12.698;2022-11-13T11:46:51;0.50;;;0.50;;
14209;SDS011;7188;56.070;12.698;2022-11-13T11:49:16;1.83;;;0.50;;
14209;SDS011;7188;56.070;12.698;2022-11-13T12:00:05;2.30;;;0.50;;
14209;SDS011;7188;56.070;12.698;2022-11-13T12:05:13;1.17;;;0.50;;
14209;SDS011;7188;56.070;12.698;2022-11-13T12:13:28;1.00;;;0.30;;
14209;SDS011;7188;56.070;12.698;2022-11-13T12:16:07;0.60;;;0.40;;
14209;SDS011;7188;56.070;12.698;2022-11-13T12:21:44;0.70;;;0.43;;
14209;SDS011;7188;56.070;12.698;2022-11-13T12:32:37;2.03;;;0.87;;
14209;SDS011;7188;56.070;12.698;2022-11-13T12:35:17;1.83;;;0.70;;
14209;SDS011;7188;56.070;12.698;2022-11-13T12:40:19;1.87;;;0.60;;
14209;SDS011;7188;56.070;12.698;2022-11-13T12:42:48;0.60;;;0.60;;
14209;SDS011;7188;56.070;12.698;2022-11-13T12:48:35;2.10;;;0.73;;
14209;SDS011;7188;56.070;12.698;2022-11-13T12:51:05;0.80;;;0.80;;
14209;SDS011;7188;56.070;12.698;2022-11-13T12:56:44;1.33;;;0.50;;
14209;SDS011;7188;56.070;12.698;2022-11-13T12:59:04;0.50;;;0.50;;
14209;SDS011;7188;56.070;12.698;2022-11-13T13:01:58;0.70;;;0.70;;
14209;SDS011;7188;56.070;12.698;2022-11-13T13:04:36;1.03;;;0.60;;
14209;SDS011;7188;56.070;12.698;2022-11-13T13:16:01;2.73;;;0.70;;
14209;SDS011;7188;56.070;12.698;2022-11-13T13:18:32;0.90;;;0.50;;
14209;SDS011;7188;56.070;12.698;2022-11-13T13:21:07;0.50;;;0.50;;
14209;SDS011;7188;56.070;12.698;2022-11-13T13:23:39;2.00;;;0.60;;
14209;SDS011;7188;56.070;12.698;2022-11-13T13:28:48;1.40;;;0.43;;
14209;SDS011;7188;56.070;12.698;2022-11-13T13:31:33;2.73;;;0.60;;
14209;SDS011;7188;56.070;12.698;2022-11-13T13:42:38;2.17;;;1.20;;
14209;SDS011;7188;56.070;12.698;2022-11-13T13:47:56;0.77;;;0.77;;
14209;SDS011;7188;56.070;12.698;2022-11-13T13:50:26;0.80;;;0.80;;
14209;SDS011;7188;56.070;12.698;2022-11-13T13:52:57;0.83;;;0.83;;
14209;SDS011;7188;56.070;12.698;2022-11-13T13:55:34;1.50;;;0.77;;
14209;SDS011;7188;56.070;12.698;2022-11-13T13:58:07;0.63;;;0.60;;
14209;SDS011;7188;56.070;12.698;2022-11-13T14:00:37;1.17;;;0.53;;
14209;SDS011;7188;56.070;12.698;2022-11-13T14:03:03;0.80;;;0.80;;
14209;SDS011;7188;56.070;12.698;2022-11-13T14:05:39;1.60;;;0.73;;
14209;SDS011;7188;56.070;12.698;2022-11-13T14:08:14;0.80;;;0.80;;
14209;SDS011;7188;56.070;12.698;2022-11-13T14:10:44;0.50;;;0.50;;
14209;SDS011;7188;56.070;12.698;2022-11-13T14:13:20;0.70;;;0.70;;
14209;SDS011;7188;56.070;12.698;2022-11-13T14:16:04;0.80;;;0.57;;
14209;SDS011;7188;56.070;12.698;2022-11-13T14:18:31;1.80;;;0.83;;
14209;SDS011;7188;56.070;12.698;2022-11-13T14:20:59;0.73;;;0.43;;
14209;SDS011;7188;56.070;12.698;2022-11-13T14:23:28;0.57;;;0.57;;
14209;SDS011;7188;56.070;12.698;2022-11-13T14:25:55;0.53;;;0.53;;
14209;SDS011;7188;56.070;12.698;2022-11-13T14:28:28;0.80;;;0.80;;
14209;SDS011;7188;56.070;12.698;2022-11-13T14:30:57;0.70;;;0.70;;
14209;SDS011;7188;56.070;12.698;2022-11-13T14:36:09;0.87;;;0.87;;
14209;SDS011;7188;56.070;12.698;2022-11-13T14:38:38;2.47;;;0.70;;
14209;SDS011;7188;56.070;12.698;2022-11-13T14:41:16;0.80;;;0.80;;
14209;SDS011;7188;56.070;12.698;2022-11-13T14:43:47;2.30;;;0.90;;
14209;SDS011;7188;56.070;12.698;2022-11-13T14:48:54;1.33;;;0.80;;
14209;SDS011;7188;56.070;12.698;2022-11-13T14:51:21;0.50;;;0.50;;
14209;SDS011;7188;56.070;12.698;2022-11-13T14:53:59;1.63;;;0.90;;
14209;SDS011;7188;56.070;12.698;2022-11-13T14:56:30;1.97;;;0.80;;
14209;SDS011;7188;56.070;12.698;2022-11-13T14:59:05;0.90;;;0.73;;
14209;SDS011;7188;56.070;12.698;2022-11-13T15:01:32;1.90;;;1.00;;
14209;SDS011;7188;56.070;12.698;2022-11-13T15:03:58;0.60;;;0.60;;
14209;SDS011;7188;56.070;12.698;2022-11-13T15:06:25;0.87;;;0.87;;
14209;SDS011;7188;56.070;12.698;2022-11-13T15:08:57;1.07;;;0.77;;
14209;SDS011;7188;56.070;12.698;2022-11-13T15:11:24;1.23;;;0.83;;
14209;SDS011;7188;56.070;12.698;2022-11-13T15:13:50;1.00;;;0.90;;
14209;SDS011;7188;56.070;12.698;2022-11-13T15:16:17;1.37;;;1.10;;
14209;SDS011;7188;56.070;12.698;2022-11-13T15:18:47;1.93;;;1.00;;
14209;SDS011;7188;56.070;12.698;2022-11-13T15:21:16;1.83;;;1.00;;
14209;SDS011;7188;56.070;12.698;2022-11-13T15:23:42;2.10;;;1.33;;
14209;SDS011;7188;56.070;12.698;2022-11-13T15:26:11;2.03;;;1.30;;
14209;SDS011;7188;56.070;12.698;2022-11-13T15:28:37;3.80;;;1.30;;
14209;SDS011;7188;56.070;12.698;2022-11-13T15:34:04;1.27;;;1.17;;
14209;SDS011;7188;56.070;12.698;2022-11-13T15:36:30;1.10;;;1.00;;
14209;SDS011;7188;56.070;12.698;2022-11-13T15:38:56;2.83;;;0.97;;
14209;SDS011;7188;56.070;12.698;2022-11-13T15:41:23;2.37;;;1.73;;
14209;SDS011;7188;56.070;12.698;2022-11-13T15:43:50;1.77;;;1.30;;
14209;SDS011;7188;56.070;12.698;2022-11-13T15:46:18;2.40;;;1.60;;
14209;SDS011;7188;56.070;12.698;2022-11-13T15:48:46;1.97;;;1.40;;
14209;SDS011;7188;56.070;12.698;2022-11-13T15:53:54;1.47;;;1.03;;
14209;SDS011;7188;56.070;12.698;2022-11-13T15:56:24;1.63;;;1.50;;
14209;SDS011;7188;56.070;12.698;2022-11-13T15:58:50;1.60;;;1.30;;
14209;SDS011;7188;56.070;12.698;2022-11-13T16:01:16;1.40;;;1.30;;
14209;SDS011;7188;56.070;12.698;2022-11-13T16:03:42;1.97;;;1.63;;
14209;SDS011;7188;56.070;12.698;2022-11-13T16:06:10;2.57;;;2.20;;
14209;SDS011;7188;56.070;12.698;2022-11-13T16:08:37;2.97;;;2.67;;
14209;SDS011;7188;56.070;12.698;2022-11-13T16:11:02;2.90;;;2.60;;
14209;SDS011;7188;56.070;12.698;2022-11-13T16:13:28;2.43;;;2.23;;
14209;SDS011;7188;56.070;12.698;2022-11-13T16:15:54;7.80;;;3.00;;
14209;SDS011;7188;56.070;12.698;2022-11-13T16:18:23;3.23;;;2.10;;
14209;SDS011;7188;56.070;12.698;2022-11-13T16:20:51;4.23;;;2.43;;
14209;SDS011;7188;56.070;12.698;2022-11-13T16:23:17;3.10;;;2.90;;
14209;SDS011;7188;56.070;12.698;2022-11-13T16:25:43;2.90;;;2.70;;
14209;SDS011;7188;56.070;12.698;2022-11-13T16:28:13;2.80;;;2.60;;
14209;SDS011;7188;56.070;12.698;2022-11-13T16:30:40;2.90;;;2.70;;
14209;SDS011;7188;56.070;12.698;2022-11-13T16:33:10;4.67;;;3.60;;
14209;SDS011;7188;56.070;12.698;2022-11-13T16:35:36;3.70;;;3.40;;